UUEEUSRR

Guest
Details From UUEE - Moscou Sheremetyevo
To USRR - Surgut
Flight Number -
Tags Generated
Created
Modified
Stats Distance 1,153 nm / 2,136 km
Max Altitude 0 ft / 0 m
Waypoints 7
Social Downloads 2
Likes 0
Share VATSIM

Download

Looking for another format? Having issues loading an existing format? Contact us
Advertisement - Login to hide

Notes

Generated

Route

UUEE MAKAR AGONA POBAL PITEP GK USRR

ID Type Via Altitude Latitude Longitude Leg Dist Tot Dist Heading (true) Name
O UUEE APT - 0 ft / 0 m 55.96979˚ 37.38673˚ - 0 nm - -
MAKAR FIX - 0 ft / 0 m 57.88333˚ 43.78333˚ 238 nm 238 nm 59° / 64° -
AGONA FIX - 0 ft / 0 m 59.35000˚ 50.86667˚ 238 nm 477 nm 65° / 71° -
POBAL FIX - 0 ft / 0 m 60.28333˚ 57.60000˚ 210 nm 687 nm 72° / 78° -
PITEP FIX - 0 ft / 0 m 61.03333˚ 65.98333˚ 250 nm 938 nm 76° / 83° -
GK NDB - 0 ft / 0 m 61.34333˚ 73.30000˚ 212 nm 1151 nm 82° / 88° SURGUT NDB
O USRR APT - 0 ft / 0 m 61.34364˚ 73.37581˚ 2 nm 1153 nm 89° / 90° -

Altitude Profile

Advertisement - Login to hide

Weather


0- 5 10 15 20 25 30 35+ Temperature / ° C

Clouds and Precipitation
Forecast for 2018-05-23 12:00 UTC. Updated 2 hours ago

Ground ~20,000 ft ~40,000 ft Winds

UUEE

Details ICAO UUEE (SVO)
Name Moscou Sheremetyevo
Region Russia
Timezone Europe/Moscow (UTC+3.0)
Stats Elevation 622 ft / 190 m (AMSL)
Location 55.972642° 37.414586°
Runways 2
Magnetic Variation 11.221° E

METAR

UUEE 231300Z 24005MPS 9999 SCT046 22/11 Q1022 R24C/CLRD62 R24L/CLRD62 NOSIG

Decode

TAF

TAF UUEE 231049Z 2312/2412 24005MPS 9999 SCT030 TX22/2312Z TN11/2402Z TEMPO 2316/2318 VRB01MPS BECMG 2318/2320 02003MPS

Decode

Departure Runways

ID Width Length Bearing (true) Bearing (mag) Surface Threshold Offset Overrun Length
07L 197 ft / 60 m 11,613 ft / 3,540 m 74.99° 63.77° Concrete 0 ft / 0 m 240 ft / 73 m
07R 197 ft / 60 m 12,127 ft / 3,696 m 75.03° 63.81° Concrete 0 ft / 0 m 235 ft / 72 m
25L 197 ft / 60 m 12,127 ft / 3,696 m 255.08° 243.86° Concrete 0 ft / 0 m 245 ft / 75 m
25R 197 ft / 60 m 11,613 ft / 3,540 m 255.04° 243.82° Concrete 0 ft / 0 m 245 ft / 75 m

USRR

Details ICAO USRR (SGC)
Name SURGUT
Region Russia
Timezone Asia/Yekaterinburg (UTC+5.0)
Stats Elevation 200 ft / 61 m (AMSL)
Location 61.343693° 73.401842°
Runways 1
Magnetic Variation 17.121° E

METAR

USRR 231300Z 31006MPS 9999 FEW040 04/M06 Q1019 R25/CLRD60 NOSIG RMK QFE758

Decode

TAF

TAF TAF USRR 231055Z 2312/2412 33006G13MPS 9999 BKN011 TEMPO 2312/2316 3100 -SHSN BKN005 BKN015CB TEMPO 2316/2321 17003MPS 0900 FG VV002

Decode

Destination Runways

ID Width Length Bearing (true) Bearing (mag) Surface Threshold Offset Overrun Length
07 148 ft / 45 m 9,112 ft / 2,778 m 89.72° 72.60° Asphalt 0 ft / 0 m 165 ft / 50 m
25 148 ft / 45 m 9,112 ft / 2,778 m 269.76° 252.64° Asphalt 0 ft / 0 m 165 ft / 50 m

Popular Alternatives